createdAt,value
2022-09-28T00:00:46.915Z,99586.63
2022-09-28T00:03:13.767Z,99590.22
2022-09-28T00:05:40.296Z,99589.47
2022-09-28T00:08:06.725Z,99586.13
2022-09-28T00:10:33.201Z,99586.97
2022-09-28T00:13:01.386Z,99577.72
2022-09-28T00:15:27.876Z,99570.56
2022-09-28T00:17:54.365Z,99567.56
2022-09-28T00:20:22.730Z,99570.63
2022-09-28T00:22:49.294Z,99574.31
2022-09-28T00:25:16.918Z,99572.03
2022-09-28T00:27:43.407Z,99571.41
2022-09-28T00:30:10.291Z,99573.03
2022-09-28T00:32:36.722Z,99569.72
2022-09-28T00:35:03.260Z,99571.72
2022-09-28T00:37:29.760Z,99567.22
2022-09-28T00:39:56.247Z,99571.97
2022-09-28T00:42:24.858Z,99573.91
2022-09-28T00:44:53.719Z,99568.66
2022-09-28T00:47:49.792Z,99569.84
2022-09-28T00:50:25.446Z,99566.22
2022-09-28T00:53:26.602Z,99559.41
2022-09-28T00:56:00.488Z,99574.63
2022-09-28T00:58:30.079Z,99570.69
2022-09-28T01:00:58.923Z,99567.03
2022-09-28T01:03:27.765Z,99564.06
2022-09-28T01:05:57.207Z,99564.19
2022-09-28T01:08:27.183Z,99566.63
2022-09-28T01:10:53.675Z,99566.16
2022-09-28T01:13:22.148Z,99561.50
2022-09-28T01:16:13.017Z,99557.59
2022-09-28T01:18:51.739Z,99554.53
2022-09-28T01:21:23.647Z,99549.84
2022-09-28T01:23:52.961Z,99550.16
2022-09-28T01:26:25.397Z,99550.72
2022-09-28T01:29:04.593Z,99549.19
2022-09-28T01:31:35.690Z,99550.56
2022-09-28T01:34:12.159Z,99547.09
2022-09-28T01:37:00.916Z,99540.50
2022-09-28T01:39:38.249Z,99542.94
2022-09-28T01:42:10.068Z,99541.56
2022-09-28T01:44:41.624Z,99536.47
2022-09-28T01:47:13.022Z,99537.50
2022-09-28T01:49:45.722Z,99543.31
2022-09-28T01:52:33.858Z,99535.19
2022-09-28T01:55:35.871Z,99547.19
2022-09-28T01:58:11.029Z,99540.03
2022-09-28T02:00:41.790Z,99534.38
2022-09-28T02:03:57.972Z,99543.16
2022-09-28T02:06:38.836Z,99534.38
2022-09-28T02:09:12.699Z,99537.28
2022-09-28T02:11:43.245Z,99539.47
2022-09-28T02:14:12.268Z,99534.19
2022-09-28T02:16:43.847Z,99526.81
2022-09-28T02:19:18.225Z,99527.63
2022-09-28T02:22:03.097Z,99531.66
2022-09-28T02:24:38.795Z,99533.44
2022-09-28T02:27:34.235Z,99533.81
2022-09-28T02:30:01.417Z,99526.00
2022-09-28T02:32:31.135Z,99525.03
2022-09-28T02:34:57.744Z,99516.09
2022-09-28T02:37:24.418Z,99518.38
2022-09-28T02:39:50.861Z,99519.94
2022-09-28T02:42:25.702Z,99521.91
2022-09-28T02:45:21.745Z,99513.38
2022-09-28T02:48:41.242Z,99516.13
2022-09-28T02:51:21.129Z,99523.78
2022-09-28T02:54:02.535Z,99518.22
2022-09-28T02:56:54.430Z,99514.59
2022-09-28T02:59:29.694Z,99510.75
2022-09-28T03:02:11.458Z,99511.53
2022-09-28T03:05:04.071Z,99504.03
2022-09-28T03:07:38.522Z,99516.75
2022-09-28T03:10:05.105Z,99512.41
2022-09-28T03:12:33.256Z,99511.44
2022-09-28T03:15:21.247Z,99511.59
2022-09-28T03:17:47.751Z,99516.53
2022-09-28T03:20:14.202Z,99511.94
2022-09-28T03:22:40.783Z,99515.25
2022-09-28T03:25:08.643Z,99517.16
2022-09-28T03:27:35.186Z,99517.09
2022-09-28T03:30:02.045Z,99518.94
2022-09-28T03:32:28.443Z,99514.75
2022-09-28T03:34:55.850Z,99506.16
2022-09-28T03:37:22.342Z,99511.31
2022-09-28T03:39:48.855Z,99508.94
2022-09-28T03:42:15.295Z,99510.16
2022-09-28T03:44:41.739Z,99510.00
2022-09-28T03:47:08.956Z,99508.88
2022-09-28T03:49:35.729Z,99511.47
2022-09-28T03:52:03.138Z,99515.56
2022-09-28T03:54:29.950Z,99508.16
2022-09-28T03:56:56.535Z,99513.16
2022-09-28T03:59:23.012Z,99502.13
2022-09-28T04:01:50.546Z,99511.78
2022-09-28T04:04:17.386Z,99505.88
2022-09-28T04:06:44.140Z,99510.50
2022-09-28T04:09:12.280Z,99499.47
2022-09-28T04:11:59.808Z,99500.97
2022-09-28T04:14:25.308Z,99499.88
2022-09-28T04:16:54.846Z,99499.47
2022-09-28T04:19:22.178Z,99510.00
2022-09-28T04:21:50.987Z,99502.53
2022-09-28T04:24:18.360Z,99495.66
2022-09-28T04:26:44.812Z,99490.44
2022-09-28T04:29:17.518Z,99490.03
2022-09-28T04:31:49.778Z,99494.16
2022-09-28T04:34:23.189Z,99493.16
2022-09-28T04:36:50.080Z,99490.19
2022-09-28T04:39:18.254Z,99502.25
2022-09-28T04:41:47.928Z,99498.94
2022-09-28T04:44:14.367Z,99489.91
2022-09-28T04:46:40.822Z,99486.28
2022-09-28T04:49:07.227Z,99479.63
2022-09-28T04:51:33.736Z,99473.28
2022-09-28T04:54:00.178Z,99478.84
2022-09-28T04:56:26.808Z,99475.47
2022-09-28T04:58:53.308Z,99478.03
2022-09-28T05:01:23.423Z,99464.56
2022-09-28T05:03:51.125Z,99466.41
2022-09-28T05:06:17.910Z,99461.19
2022-09-28T05:08:46.916Z,99466.13
2022-09-28T05:11:14.338Z,99466.94
2022-09-28T05:13:43.487Z,99470.78
2022-09-28T05:16:10.615Z,99475.34
2022-09-28T05:18:37.198Z,99478.03
2022-09-28T05:21:04.673Z,99475.56
2022-09-28T05:23:31.120Z,99478.50
2022-09-28T05:26:01.782Z,99477.50
2022-09-28T05:28:30.956Z,99482.00
2022-09-28T05:31:01.684Z,99477.03
2022-09-28T05:33:28.926Z,99478.00
2022-09-28T05:36:00.776Z,99484.78
2022-09-28T05:38:27.806Z,99482.28
2022-09-28T05:40:54.317Z,99494.44
2022-09-28T05:43:20.849Z,99496.69
2022-09-28T05:45:50.423Z,99497.66
2022-09-28T05:48:20.901Z,99495.34
2022-09-28T05:50:52.327Z,99492.78
2022-09-28T05:53:19.135Z,99494.75
2022-09-28T05:55:45.647Z,99497.59
2022-09-28T05:58:12.205Z,99500.94
2022-09-28T06:00:38.692Z,99485.00
2022-09-28T06:03:09.403Z,99485.69
2022-09-28T06:05:36.836Z,99483.47
2022-09-28T06:08:05.235Z,99475.63
2022-09-28T06:10:32.561Z,99488.25
2022-09-28T06:13:00.623Z,99484.63
2022-09-28T06:15:29.862Z,99488.94
2022-09-28T06:18:01.821Z,99491.06
2022-09-28T06:20:30.058Z,99484.81
2022-09-28T06:22:56.601Z,99492.53
2022-09-28T06:25:23.985Z,99496.66
2022-09-28T06:28:05.271Z,99489.19
2022-09-28T06:30:34.386Z,99497.69
2022-09-28T06:33:02.299Z,99500.78
2022-09-28T06:35:30.445Z,99502.41
2022-09-28T06:37:58.239Z,99496.34
2022-09-28T06:40:25.139Z,99488.72
2022-09-28T06:42:59.499Z,99493.38
2022-09-28T06:45:27.820Z,99491.19
2022-09-28T06:47:59.415Z,99483.88
2022-09-28T06:50:39.727Z,99476.06
2022-09-28T06:53:09.315Z,99482.34
2022-09-28T06:55:39.426Z,99473.09
2022-09-28T06:58:09.768Z,99475.50
2022-09-28T07:00:38.178Z,99482.94
2022-09-28T07:03:07.339Z,99479.53
2022-09-28T07:05:36.924Z,99485.25
2022-09-28T07:08:06.327Z,99481.56
2022-09-28T07:10:33.383Z,99478.50
2022-09-28T07:13:04.110Z,99479.50
2022-09-28T07:15:32.165Z,99479.75
2022-09-28T07:18:03.123Z,99478.47
2022-09-28T07:20:31.247Z,99482.31
2022-09-28T07:23:10.092Z,99478.97
2022-09-28T07:25:45.350Z,99484.06
2022-09-28T07:28:12.255Z,99484.78
2022-09-28T07:30:38.866Z,99493.25
2022-09-28T07:33:07.294Z,99497.91
2022-09-28T07:35:34.433Z,99497.88
2022-09-28T07:38:10.807Z,99506.34
2022-09-28T07:40:56.193Z,99516.81
2022-09-28T07:43:22.685Z,99520.69
2022-09-28T07:45:54.199Z,99517.50
2022-09-28T07:48:21.667Z,99516.28
2022-09-28T07:50:52.849Z,99518.06
2022-09-28T07:53:20.331Z,99525.88
2022-09-28T07:55:53.961Z,99534.97
2022-09-28T07:58:20.748Z,99529.84
2022-09-28T08:00:48.622Z,99533.41
2022-09-28T08:03:19.439Z,99533.28
2022-09-28T08:05:48.088Z,99528.91
2022-09-28T08:08:15.455Z,99521.00
2022-09-28T08:10:46.969Z,99518.38
2022-09-28T08:13:15.252Z,99518.53
2022-09-28T08:15:42.609Z,99507.97
2022-09-28T08:18:09.872Z,99501.56
2022-09-28T08:20:55.053Z,99500.78
2022-09-28T08:23:21.892Z,99497.44
2022-09-28T08:25:49.675Z,99508.53
2022-09-28T08:28:17.709Z,99505.28
2022-09-28T08:30:45.655Z,99505.84
2022-09-28T08:33:13.585Z,99500.75
2022-09-28T08:35:43.363Z,99496.09
2022-09-28T08:38:10.914Z,99487.84
2022-09-28T08:40:57.780Z,99477.75
2022-09-28T08:43:42.854Z,99480.63
2022-09-28T08:46:11.635Z,99489.72
2022-09-28T08:52:00.373Z,99480.00
2022-09-28T08:54:51.949Z,99485.09
2022-09-28T08:57:34.016Z,99486.94
2022-09-28T09:00:02.529Z,99478.63
2022-09-28T09:02:33.511Z,99482.13
2022-09-28T09:05:06.099Z,99478.06
2022-09-28T09:08:23.471Z,99473.03
2022-09-28T09:11:02.310Z,99478.13
2022-09-28T09:14:27.211Z,99473.91
2022-09-28T09:17:00.405Z,99471.50
2022-09-28T09:19:45.884Z,99466.50
2022-09-28T09:22:16.887Z,99455.09
2022-09-28T09:24:51.965Z,99455.88
2022-09-28T09:27:32.284Z,99464.19
2022-09-28T09:30:19.401Z,99462.59
2022-09-28T09:33:29.187Z,99466.84
2022-09-28T09:36:37.853Z,99459.38
2022-09-28T09:39:41.467Z,99460.19
2022-09-28T09:42:43.809Z,99461.25
2022-09-28T09:45:18.925Z,99454.81
2022-09-28T09:47:53.397Z,99451.63
2022-09-28T09:50:32.083Z,99450.84
2022-09-28T09:53:29.376Z,99448.16
2022-09-28T09:56:01.711Z,99455.09
2022-09-28T09:58:35.736Z,99449.75
2022-09-28T10:01:10.922Z,99451.09
2022-09-28T10:03:42.304Z,99448.66
2022-09-28T10:06:13.407Z,99441.19
2022-09-28T10:08:46.156Z,99448.88
2022-09-28T10:11:22.146Z,99442.72
2022-09-28T10:13:49.216Z,99449.09
2022-09-28T10:16:19.274Z,99442.94
2022-09-28T10:18:45.835Z,99453.66
2022-09-28T10:21:14.496Z,99450.94
2022-09-28T10:23:42.528Z,99443.66
2022-09-28T10:26:25.156Z,99443.94
2022-09-28T10:29:01.668Z,99439.22
2022-09-28T10:31:47.518Z,99431.66
2022-09-28T10:34:15.587Z,99425.69
2022-09-28T10:37:03.387Z,99429.66
2022-09-28T10:39:33.660Z,99418.75
2022-09-28T10:42:04.240Z,99416.91
2022-09-28T10:44:34.343Z,99410.91
2022-09-28T10:47:03.383Z,99413.19
2022-09-28T10:49:46.843Z,99403.41
2022-09-28T10:52:35.105Z,99407.75
2022-09-28T10:55:02.398Z,99403.59
2022-09-28T10:57:34.670Z,99397.59
2022-09-28T11:00:02.754Z,99387.31
2022-09-28T11:02:35.991Z,99391.56
2022-09-28T11:05:05.846Z,99391.50
2022-09-28T11:07:34.296Z,99389.56
2022-09-28T11:10:01.926Z,99390.97
2022-09-28T11:12:36.971Z,99367.19
2022-09-28T11:15:07.568Z,99375.31
2022-09-28T11:17:41.980Z,99371.97
2022-09-28T11:20:28.262Z,99365.47
2022-09-28T11:22:58.580Z,99358.84
2022-09-28T11:25:29.720Z,99362.94
2022-09-28T11:27:58.039Z,99363.53
2022-09-28T11:30:49.906Z,99352.22
2022-09-28T11:33:20.612Z,99352.72
2022-09-28T11:35:57.350Z,99354.16
2022-09-28T11:38:54.385Z,99355.25
2022-09-28T11:41:49.095Z,99356.06
2022-09-28T11:44:38.027Z,99355.78
2022-09-28T11:47:17.663Z,99352.94
2022-09-28T11:49:57.447Z,99349.31
2022-09-28T11:52:32.377Z,99339.69
2022-09-28T11:55:05.331Z,99334.19
2022-09-28T11:57:38.359Z,99341.63
2022-09-28T12:00:09.968Z,99327.47
2022-09-28T12:02:42.640Z,99325.50
2022-09-28T12:05:19.846Z,99328.56
2022-09-28T12:07:54.311Z,99331.34
2022-09-28T12:10:45.635Z,99322.34
2022-09-28T12:13:18.806Z,99318.00
2022-09-28T12:16:32.710Z,99313.41
2022-09-28T12:21:36.310Z,99301.63
2022-09-28T12:24:33.292Z,99304.66
2022-09-28T12:27:23.964Z,99299.81
2022-09-28T12:30:15.330Z,99300.28
2022-09-28T12:33:00.565Z,99304.66
2022-09-28T12:35:52.556Z,99303.09
2022-09-28T12:38:34.146Z,99295.91
2022-09-28T12:41:41.962Z,99315.97
2022-09-28T12:44:40.859Z,99303.03
2022-09-28T12:47:16.112Z,99306.31
2022-09-28T12:53:12.376Z,99303.53
2022-09-28T12:55:44.959Z,99304.13
2022-09-28T12:58:36.454Z,99296.81
2022-09-28T13:01:12.182Z,99289.81
2022-09-28T13:03:47.588Z,99286.03
2022-09-28T13:06:34.690Z,99284.66
2022-09-28T13:09:25.077Z,99288.84
2022-09-28T13:12:00.600Z,99287.19
2022-09-28T13:14:45.102Z,99284.81
2022-09-28T13:17:14.473Z,99285.13
2022-09-28T13:19:57.775Z,99289.28
2022-09-28T13:22:46.091Z,99279.44
2022-09-28T13:25:21.990Z,99278.94
2022-09-28T13:27:53.404Z,99274.75
2022-09-28T13:30:20.130Z,99275.88
2022-09-28T13:32:48.719Z,99279.56
2022-09-28T13:35:20.234Z,99272.75
2022-09-28T13:37:47.933Z,99274.19
2022-09-28T13:40:14.775Z,99269.31
2022-09-28T13:42:53.175Z,99268.88
2022-09-28T13:45:53.821Z,99268.66
2022-09-28T13:48:24.531Z,99276.97
2022-09-28T13:51:05.050Z,99274.06
2022-09-28T13:53:52.689Z,99267.69
2022-09-28T13:56:32.676Z,99273.38
2022-09-28T13:59:11.948Z,99279.50
2022-09-28T14:01:51.579Z,99269.59
2022-09-28T14:04:20.901Z,99276.66
2022-09-28T14:07:10.580Z,99269.41
2022-09-28T14:09:44.872Z,99262.16
2022-09-28T14:12:30.102Z,99256.97
2022-09-28T14:14:57.024Z,99253.69
2022-09-28T14:17:30.365Z,99258.16
2022-09-28T14:20:07.220Z,99242.22
2022-09-28T14:22:53.258Z,99245.25
2022-09-28T14:25:30.235Z,99249.16
2022-09-28T14:28:38.315Z,99251.28
2022-09-28T14:31:14.238Z,99263.03
2022-09-28T14:33:42.985Z,99253.44
2022-09-28T14:36:47.427Z,99241.34
2022-09-28T14:39:52.398Z,99239.50
2022-09-28T14:42:23.804Z,99239.75
2022-09-28T14:45:06.100Z,99235.25
2022-09-28T14:47:37.992Z,99241.81
2022-09-28T14:50:24.669Z,99247.47
2022-09-28T14:52:54.199Z,99246.50
2022-09-28T14:55:31.902Z,99238.59
2022-09-28T14:57:59.150Z,99230.91
2022-09-28T15:00:30.336Z,99235.72
2022-09-28T15:03:02.126Z,99232.56
2022-09-28T15:05:30.861Z,99227.44
2022-09-28T15:07:57.922Z,99225.25
2022-09-28T15:10:33.552Z,99231.06
2022-09-28T15:13:18.204Z,99227.38
2022-09-28T15:15:50.421Z,99225.69
2022-09-28T15:18:49.459Z,99220.44
2022-09-28T15:21:16.419Z,99228.75
2022-09-28T15:23:45.026Z,99227.88
2022-09-28T15:26:32.335Z,99228.00
2022-09-28T15:29:03.154Z,99222.47
2022-09-28T15:31:35.522Z,99221.38
2022-09-28T15:34:20.419Z,99213.34
2022-09-28T15:36:47.200Z,99214.72
2022-09-28T15:39:24.363Z,99220.59
2022-09-28T15:41:51.235Z,99217.16
2022-09-28T15:44:33.031Z,99211.16
2022-09-28T15:47:10.796Z,99214.34
2022-09-28T15:49:41.713Z,99208.41
2022-09-28T15:52:23.515Z,99206.09
2022-09-28T15:54:50.077Z,99206.88
2022-09-28T15:57:39.968Z,99218.06
2022-09-28T16:00:21.810Z,99216.97
2022-09-28T16:03:21.023Z,99212.25
2022-09-28T16:05:59.688Z,99223.63
2022-09-28T16:08:45.772Z,99223.56
2022-09-28T16:11:21.153Z,99229.56
2022-09-28T16:14:08.861Z,99225.81
2022-09-28T16:16:41.133Z,99235.81
2022-09-28T16:19:24.084Z,99221.41
2022-09-28T16:21:55.837Z,99215.88
2022-09-28T16:24:25.438Z,99213.03
2022-09-28T16:27:02.689Z,99210.22
2022-09-28T16:29:44.953Z,99215.91
2022-09-28T16:32:24.797Z,99226.06
2022-09-28T16:35:12.637Z,99227.69
2022-09-28T16:37:43.636Z,99228.94
2022-09-28T16:40:12.101Z,99236.00
2022-09-28T16:42:46.795Z,99236.25
2022-09-28T16:45:29.983Z,99230.91
2022-09-28T16:47:57.486Z,99230.72
2022-09-28T16:50:25.333Z,99242.44
2022-09-28T16:53:31.445Z,99236.91
2022-09-28T16:55:59.687Z,99235.34
2022-09-28T16:58:26.379Z,99236.81
2022-09-28T17:00:54.632Z,99245.19
2022-09-28T17:03:23.400Z,99238.78
2022-09-28T17:05:51.080Z,99231.84
2022-09-28T17:08:21.685Z,99244.28
2022-09-28T17:11:16.610Z,99239.06
2022-09-28T17:13:42.468Z,99227.88
2022-09-28T17:16:15.277Z,99224.16
2022-09-28T17:18:41.856Z,99221.47
2022-09-28T17:21:18.162Z,99227.63
2022-09-28T17:23:49.358Z,99226.16
2022-09-28T17:26:30.650Z,99226.66
2022-09-28T17:29:01.788Z,99241.28
2022-09-28T17:31:29.853Z,99239.25
2022-09-28T17:33:56.612Z,99235.84
2022-09-28T17:36:23.626Z,99240.97
2022-09-28T17:38:51.800Z,99238.97
2022-09-28T17:41:20.847Z,99239.06
2022-09-28T17:43:48.198Z,99236.69
2022-09-28T17:46:26.942Z,99239.44
2022-09-28T17:48:54.239Z,99243.06
2022-09-28T17:51:22.161Z,99237.88
2022-09-28T17:53:48.695Z,99244.19
2022-09-28T17:56:15.376Z,99232.41
2022-09-28T17:58:41.910Z,99234.50
2022-09-28T18:01:09.371Z,99241.53
2022-09-28T18:03:35.870Z,99246.44
2022-09-28T18:06:06.568Z,99241.28
2022-09-28T18:08:33.795Z,99235.41
2022-09-28T18:11:01.654Z,99235.13
2022-09-28T18:13:28.397Z,99236.81
2022-09-28T18:15:56.119Z,99235.78
2022-09-28T18:18:23.954Z,99240.06
2022-09-28T18:20:51.385Z,99244.78
2022-09-28T18:23:18.123Z,99237.63
2022-09-28T18:25:46.175Z,99235.78
2022-09-28T18:28:13.348Z,99236.00
2022-09-28T18:30:42.715Z,99239.53
2022-09-28T18:33:10.435Z,99248.28
2022-09-28T18:35:37.214Z,99236.88
2022-09-28T18:38:08.062Z,99236.28
2022-09-28T18:40:35.794Z,99234.72
2022-09-28T18:43:03.719Z,99240.41
2022-09-28T18:45:30.194Z,99253.75
2022-09-28T18:47:57.642Z,99249.72
2022-09-28T18:50:24.138Z,99248.25
2022-09-28T18:52:50.672Z,99238.94
2022-09-28T18:55:17.188Z,99242.16
2022-09-28T18:57:44.689Z,99245.97
2022-09-28T19:00:12.406Z,99248.06
2022-09-28T19:02:39.235Z,99244.50
2022-09-28T19:05:06.533Z,99240.56
2022-09-28T19:07:33.955Z,99239.34
2022-09-28T19:10:00.463Z,99234.38
2022-09-28T19:12:26.968Z,99226.94
2022-09-28T19:14:53.499Z,99233.72
2022-09-28T19:17:20.049Z,99229.63
2022-09-28T19:19:46.597Z,99227.22
2022-09-28T19:22:13.132Z,99225.19
2022-09-28T19:24:39.689Z,99218.19
2022-09-28T19:27:06.269Z,99224.28
2022-09-28T19:29:32.778Z,99223.66
2022-09-28T19:31:59.198Z,99216.06
2022-09-28T19:34:29.865Z,99218.81
2022-09-28T19:36:56.967Z,99216.16
2022-09-28T19:39:23.463Z,99221.25
2022-09-28T19:41:51.315Z,99216.72
2022-09-28T19:44:29.015Z,99214.03
2022-09-28T19:46:56.711Z,99216.25
2022-09-28T19:49:24.891Z,99221.94
2022-09-28T19:52:14.937Z,99225.22
2022-09-28T19:55:00.237Z,99218.59
2022-09-28T19:57:32.563Z,99216.31
2022-09-28T20:00:03.194Z,99219.66
2022-09-28T20:02:30.173Z,99219.25
2022-09-28T20:04:56.686Z,99214.69
2022-09-28T20:07:23.172Z,99222.59
2022-09-28T20:09:49.639Z,99225.78
2022-09-28T20:12:16.148Z,99228.78
2022-09-28T20:14:42.888Z,99227.28
2022-09-28T20:17:09.616Z,99225.06
2022-09-28T20:19:36.194Z,99228.78
2022-09-28T20:22:02.996Z,99224.69
2022-09-28T20:24:31.142Z,99228.94
2022-09-28T20:26:58.067Z,99229.25
2022-09-28T20:29:24.934Z,99223.13
2022-09-28T20:31:51.938Z,99227.09
2022-09-28T20:34:18.698Z,99226.03
2022-09-28T20:36:45.230Z,99216.56
2022-09-28T20:39:12.342Z,99220.50
2022-09-28T20:41:39.029Z,99212.72
2022-09-28T20:44:06.662Z,99216.63
2022-09-28T20:46:37.311Z,99214.09
2022-09-28T20:49:05.226Z,99210.44
2022-09-28T20:51:32.366Z,99206.53
2022-09-28T20:53:59.410Z,99210.81
2022-09-28T20:56:28.475Z,99209.50
2022-09-28T20:58:55.788Z,99206.13
2022-09-28T21:01:27.620Z,99206.63
2022-09-28T21:03:55.419Z,99211.75
2022-09-28T21:06:25.306Z,99204.84
2022-09-28T21:08:52.281Z,99207.13
2022-09-28T21:11:21.439Z,99214.75
2022-09-28T21:13:51.431Z,99223.97
2022-09-28T21:16:18.135Z,99217.91
2022-09-28T21:18:45.170Z,99220.66
2022-09-28T21:21:13.735Z,99205.28
2022-09-28T21:23:40.754Z,99217.44
2022-09-28T21:26:25.010Z,99211.91
2022-09-28T21:29:06.261Z,99209.72
2022-09-28T21:31:37.366Z,99205.25
2022-09-28T21:34:04.812Z,99203.25
2022-09-28T21:36:31.784Z,99203.81
2022-09-28T21:38:58.323Z,99204.09
2022-09-28T21:41:25.432Z,99202.25
2022-09-28T21:43:52.470Z,99209.97
2022-09-28T21:46:19.027Z,99205.50
2022-09-28T21:48:45.548Z,99207.91
2022-09-28T21:51:15.799Z,99207.56
2022-09-28T21:53:42.882Z,99212.97
2022-09-28T21:56:11.807Z,99207.47
2022-09-28T21:58:40.062Z,99208.56
2022-09-28T22:01:15.437Z,99202.13
2022-09-28T22:03:44.063Z,99198.41
2022-09-28T22:06:11.463Z,99192.03
2022-09-28T22:08:38.765Z,99202.44
2022-09-28T22:11:13.645Z,99199.00
2022-09-28T22:13:45.782Z,99202.22
2022-09-28T22:16:14.247Z,99200.03
2022-09-28T22:18:41.272Z,99200.06
2022-09-28T22:21:15.368Z,99195.50
2022-09-28T22:23:42.439Z,99193.63
2022-09-28T22:26:17.902Z,99204.59
2022-09-28T22:28:47.019Z,99200.06
2022-09-28T22:31:15.008Z,99210.25
2022-09-28T22:33:41.748Z,99209.66
2022-09-28T22:36:08.328Z,99209.41
2022-09-28T22:38:35.375Z,99204.91
2022-09-28T22:41:03.830Z,99204.13
2022-09-28T22:43:30.985Z,99201.72
2022-09-28T22:46:05.293Z,99196.13
2022-09-28T22:48:32.532Z,99201.72
2022-09-28T22:50:59.534Z,99196.13
2022-09-28T22:53:26.315Z,99202.28
2022-09-28T22:55:52.835Z,99198.00
2022-09-28T22:58:19.293Z,99200.91
2022-09-28T23:00:45.762Z,99204.94
2022-09-28T23:03:12.375Z,99203.34
2022-09-28T23:05:38.914Z,99204.41
2022-09-28T23:08:05.400Z,99201.47
2022-09-28T23:10:32.592Z,99201.97
2022-09-28T23:13:00.110Z,99199.84
2022-09-28T23:15:27.869Z,99200.59
2022-09-28T23:17:55.118Z,99203.53
2022-09-28T23:20:22.035Z,99200.59
2022-09-28T23:22:49.282Z,99202.19
2022-09-28T23:25:17.172Z,99205.94
2022-09-28T23:27:47.837Z,99206.25
2022-09-28T23:30:16.130Z,99205.72
2022-09-28T23:32:42.661Z,99210.94
2022-09-28T23:35:10.024Z,99212.03
2022-09-28T23:37:37.597Z,99216.03
2022-09-28T23:40:06.287Z,99213.06
2022-09-28T23:42:34.714Z,99215.22
2022-09-28T23:45:01.150Z,99220.88
2022-09-28T23:47:27.630Z,99220.59
2022-09-28T23:49:54.061Z,99222.66
2022-09-28T23:52:20.527Z,99227.09
2022-09-28T23:54:47.113Z,99228.56
2022-09-28T23:57:13.613Z,99231.19
2022-09-28T23:59:40.130Z,99234.41
